PWSweather.com
Personal Weather Stations
Station Observations
KMNGREYC2
Grey Cloud Island, Grey Cloud Island, MN 55071

Grey Cloud IslandGrey Cloud Island, MN 55071

Lat: 44.799333, Lon: -92.987851

Elevation: 700

Station Type: Davis VP2

www.jagielski.com/weather/conditions.htm

High Low Average
Temperature 30.7°F-0.7°C 22.2°F-5.4°C 26.3°F-3.2°C
Dew Point 24.4°F-4.2°C 14.9°F-9.5°C 21.7°F-5.7°C
Winds 9.0 mph 14.5 kmh Calm Calm 1.0 mph SW1.6 kmh SW
Wind Gusts 14.0 mph22.5 kmh -- 6.0 mph9.7 kmh
Humidity 91% 70% 83%
Pressure 30.14 in1020.7 mb 29.96 in1014.6 mb -
Precipitation 0.00 in0.0 mm - -
Hour Temp Dew Point Humidity Winds Wind Gusts Pressure Precip Precip Rate Daily Precip Total
12:00 AM 22.2°F-5.4°C 18.9°F-7.3°C 87% Calm Calm 2.0 mph3.2 kmh 30.02 in1016.6 mb 0.00 in0.0 mm 0.00 in0.0 mm 0.00 in0.0 mm
12:15 AM 22.2°F-5.4°C 19.2°F-7.1°C 88% Calm Calm 3.0 mph4.8 kmh 30.02 in1016.6 mb 0.00 in0.0 mm 0.00 in0.0 mm 0.00 in0.0 mm
12:30 AM 22.4°F-5.3°C 19.4°F-7.0°C 88% 2.0 mph SSW3.2 kmh SSW 4.0 mph6.4 kmh 30.02 in1016.6 mb 0.00 in0.0 mm 0.00 in0.0 mm 0.00 in0.0 mm
12:45 AM 22.5°F-5.3°C 19.5°F-6.9°C 88% Calm Calm 2.0 mph3.2 kmh 30.01 in1016.3 mb 0.00 in0.0 mm 0.00 in0.0 mm 0.00 in0.0 mm
01:00 AM 22.6°F-5.2°C 19.9°F-6.7°C 89% Calm Calm 2.0 mph3.2 kmh 30.01 in1016.3 mb 0.00 in0.0 mm 0.00 in0.0 mm 0.00 in0.0 mm
01:15 AM 22.7°F-5.2°C 20.0°F-6.7°C 89% Calm Calm 2.0 mph3.2 kmh 30.01 in1016.3 mb 0.00 in0.0 mm 0.00 in0.0 mm 0.00 in0.0 mm
01:30 AM 22.8°F-5.1°C 20.1°F-6.6°C 89% Calm Calm 2.0 mph3.2 kmh 30.02 in1016.6 mb 0.00 in0.0 mm 0.00 in0.0 mm 0.00 in0.0 mm
01:45 AM 22.9°F-5.1°C 20.2°F-6.6°C 89% Calm Calm -- 30.01 in1016.3 mb 0.00 in0.0 mm 0.00 in0.0 mm 0.00 in0.0 mm
02:00 AM 23.0°F-5.0°C 20.3°F-6.5°C 89% Calm Calm 1.0 mph1.6 kmh 30.01 in1016.3 mb 0.00 in0.0 mm 0.00 in0.0 mm 0.00 in0.0 mm
02:15 AM 23.1°F-4.9°C 20.4°F-6.4°C 89% Calm Calm 1.0 mph1.6 kmh 30.00 in1015.9 mb 0.00 in0.0 mm 0.00 in0.0 mm 0.00 in0.0 mm
02:30 AM 23.3°F-4.8°C 20.8°F-6.2°C 90% 2.0 mph SSW3.2 kmh SSW 4.0 mph6.4 kmh 30.00 in1015.9 mb 0.00 in0.0 mm 0.00 in0.0 mm 0.00 in0.0 mm
02:45 AM 23.4°F-4.8°C 20.9°F-6.2°C 90% 2.0 mph SSW3.2 kmh SSW 4.0 mph6.4 kmh 29.99 in1015.6 mb 0.00 in0.0 mm 0.00 in0.0 mm 0.00 in0.0 mm
03:00 AM 23.6°F-4.7°C 21.1°F-6.1°C 90% Calm Calm 4.0 mph6.4 kmh 29.99 in1015.6 mb 0.00 in0.0 mm 0.00 in0.0 mm 0.00 in0.0 mm
03:15 AM 23.7°F-4.6°C 21.2°F-6.0°C 90% 1.0 mph SSW1.6 kmh SSW 3.0 mph4.8 kmh 29.99 in1015.6 mb 0.00 in0.0 mm 0.00 in0.0 mm 0.00 in0.0 mm
03:30 AM 23.8°F-4.6°C 21.3°F-5.9°C 90% Calm Calm 3.0 mph4.8 kmh 29.99 in1015.6 mb 0.00 in0.0 mm 0.00 in0.0 mm 0.00 in0.0 mm
03:45 AM 23.8°F-4.6°C 21.3°F-5.9°C 90% 1.0 mph SSW1.6 kmh SSW 4.0 mph6.4 kmh 29.98 in1015.2 mb 0.00 in0.0 mm 0.00 in0.0 mm 0.00 in0.0 mm
04:00 AM 23.8°F-4.6°C 21.3°F-5.9°C 90% 1.0 mph SSW1.6 kmh SSW 4.0 mph6.4 kmh 29.99 in1015.6 mb 0.00 in0.0 mm 0.00 in0.0 mm 0.00 in0.0 mm
04:15 AM 23.9°F-4.5°C 21.4°F-5.9°C 90% 1.0 mph S1.6 kmh S 7.0 mph11.3 kmh 29.99 in1015.6 mb 0.00 in0.0 mm 0.00 in0.0 mm 0.00 in0.0 mm
04:30 AM 24.1°F-4.4°C 21.9°F-5.6°C 91% 1.0 mph S1.6 kmh S 7.0 mph11.3 kmh 29.99 in1015.6 mb 0.00 in0.0 mm 0.00 in0.0 mm 0.00 in0.0 mm
04:45 AM 24.3°F-4.3°C 22.1°F-5.5°C 91% Calm Calm 2.0 mph3.2 kmh 29.98 in1015.2 mb 0.00 in0.0 mm 0.00 in0.0 mm 0.00 in0.0 mm
05:00 AM 24.5°F-4.2°C 22.3°F-5.4°C 91% Calm Calm 2.0 mph3.2 kmh 29.98 in1015.2 mb 0.00 in0.0 mm 0.00 in0.0 mm 0.00 in0.0 mm
05:15 AM 24.7°F-4.1°C 22.5°F-5.3°C 91% Calm Calm 1.0 mph1.6 kmh 29.97 in1014.9 mb 0.00 in0.0 mm 0.00 in0.0 mm 0.00 in0.0 mm
05:30 AM 24.9°F-3.9°C 22.7°F-5.2°C 91% Calm Calm 1.0 mph1.6 kmh 29.97 in1014.9 mb 0.00 in0.0 mm 0.00 in0.0 mm 0.00 in0.0 mm
05:45 AM 25.1°F-3.8°C 22.9°F-5.1°C 91% Calm Calm 4.0 mph6.4 kmh 29.97 in1014.9 mb 0.00 in0.0 mm 0.00 in0.0 mm 0.00 in0.0 mm
06:00 AM 25.4°F-3.7°C 23.1°F-4.9°C 91% Calm Calm 7.0 mph11.3 kmh 29.97 in1014.9 mb 0.00 in0.0 mm 0.00 in0.0 mm 0.00 in0.0 mm
06:15 AM 25.5°F-3.6°C 23.0°F-5.0°C 90% Calm Calm 5.0 mph8.0 kmh 29.96 in1014.6 mb 0.00 in0.0 mm 0.00 in0.0 mm 0.00 in0.0 mm
06:30 AM 25.5°F-3.6°C 23.0°F-5.0°C 90% 1.0 mph S1.6 kmh S 5.0 mph8.0 kmh 29.97 in1014.9 mb 0.00 in0.0 mm 0.00 in0.0 mm 0.00 in0.0 mm
06:45 AM 25.4°F-3.7°C 22.9°F-5.1°C 90% Calm Calm 4.0 mph6.4 kmh 29.97 in1014.9 mb 0.00 in0.0 mm 0.00 in0.0 mm 0.00 in0.0 mm
07:00 AM 25.5°F-3.6°C 23.0°F-5.0°C 90% 1.0 mph SW1.6 kmh SW 7.0 mph11.3 kmh 29.97 in1014.9 mb 0.00 in0.0 mm 0.00 in0.0 mm 0.00 in0.0 mm
07:15 AM 25.7°F-3.5°C 23.2°F-4.9°C 90% 2.0 mph SW3.2 kmh SW 6.0 mph9.7 kmh 29.97 in1014.9 mb 0.00 in0.0 mm 0.00 in0.0 mm 0.00 in0.0 mm
07:30 AM 25.9°F-3.4°C 23.4°F-4.8°C 90% 2.0 mph SW3.2 kmh SW 6.0 mph9.7 kmh 29.97 in1014.9 mb 0.00 in0.0 mm 0.00 in0.0 mm 0.00 in0.0 mm
07:45 AM 26.1°F-3.3°C 23.6°F-4.7°C 90% 1.0 mph SW1.6 kmh SW 6.0 mph9.7 kmh 29.97 in1014.9 mb 0.00 in0.0 mm 0.00 in0.0 mm 0.00 in0.0 mm
08:00 AM 26.2°F-3.2°C 23.7°F-4.6°C 90% 2.0 mph WSW3.2 kmh WSW 7.0 mph11.3 kmh 29.97 in1014.9 mb 0.00 in0.0 mm 0.00 in0.0 mm 0.00 in0.0 mm
08:15 AM 26.3°F-3.2°C 23.8°F-4.6°C 90% 2.0 mph WSW3.2 kmh WSW 5.0 mph8.0 kmh 29.98 in1015.2 mb 0.00 in0.0 mm 0.00 in0.0 mm 0.00 in0.0 mm
08:30 AM 26.4°F-3.1°C 23.9°F-4.5°C 90% 3.0 mph WSW4.8 kmh WSW 5.0 mph8.0 kmh 29.97 in1014.9 mb 0.00 in0.0 mm 0.00 in0.0 mm 0.00 in0.0 mm
08:45 AM 26.6°F-3.0°C 24.1°F-4.4°C 90% 2.0 mph WSW3.2 kmh WSW 5.0 mph8.0 kmh 29.98 in1015.2 mb 0.00 in0.0 mm 0.00 in0.0 mm 0.00 in0.0 mm
09:00 AM 26.9°F-2.8°C 24.1°F-4.4°C 89% Calm Calm 5.0 mph8.0 kmh 29.98 in1015.2 mb 0.00 in0.0 mm 0.00 in0.0 mm 0.00 in0.0 mm
09:15 AM 27.0°F-2.8°C 24.2°F-4.3°C 89% Calm Calm 5.0 mph8.0 kmh 29.98 in1015.2 mb 0.00 in0.0 mm 0.00 in0.0 mm 0.00 in0.0 mm
09:30 AM 27.1°F-2.7°C 24.0°F-4.4°C 88% Calm Calm 5.0 mph8.0 kmh 29.99 in1015.6 mb 0.00 in0.0 mm 0.00 in0.0 mm 0.00 in0.0 mm
09:45 AM 27.5°F-2.5°C 24.2°F-4.3°C 87% Calm Calm 6.0 mph9.7 kmh 29.99 in1015.6 mb 0.00 in0.0 mm 0.00 in0.0 mm 0.00 in0.0 mm
10:00 AM 27.9°F-2.3°C 24.3°F-4.3°C 86% 1.0 mph W1.6 kmh W 8.0 mph12.9 kmh 30.00 in1015.9 mb 0.00 in0.0 mm 0.00 in0.0 mm 0.00 in0.0 mm
10:15 AM 28.3°F-2.1°C 24.4°F-4.2°C 85% 4.0 mph SW6.4 kmh SW 6.0 mph9.7 kmh 30.00 in1015.9 mb 0.00 in0.0 mm 0.00 in0.0 mm 0.00 in0.0 mm
10:30 AM 28.5°F-1.9°C 24.3°F-4.3°C 84% Calm Calm 6.0 mph9.7 kmh 30.00 in1015.9 mb 0.00 in0.0 mm 0.00 in0.0 mm 0.00 in0.0 mm
10:45 AM 28.8°F-1.8°C 24.3°F-4.3°C 83% 1.0 mph SW1.6 kmh SW 6.0 mph9.7 kmh 30.00 in1015.9 mb 0.00 in0.0 mm 0.00 in0.0 mm 0.00 in0.0 mm
11:00 AM 28.9°F-1.7°C 24.1°F-4.4°C 82% 1.0 mph SSW1.6 kmh SSW 6.0 mph9.7 kmh 29.99 in1015.6 mb 0.00 in0.0 mm 0.00 in0.0 mm 0.00 in0.0 mm
11:15 AM 28.8°F-1.8°C 24.0°F-4.4°C 82% 7.0 mph SSW11.3 kmh SSW 9.0 mph14.5 kmh 29.99 in1015.6 mb 0.00 in0.0 mm 0.00 in0.0 mm 0.00 in0.0 mm
11:30 AM 28.8°F-1.8°C 24.0°F-4.4°C 82% 1.0 mph SSW1.6 kmh SSW 9.0 mph14.5 kmh 29.98 in1015.2 mb 0.00 in0.0 mm 0.00 in0.0 mm 0.00 in0.0 mm
11:45 AM 29.0°F-1.7°C 23.9°F-4.5°C 81% 2.0 mph SSW3.2 kmh SSW 7.0 mph11.3 kmh 29.97 in1014.9 mb 0.00 in0.0 mm 0.00 in0.0 mm 0.00 in0.0 mm
12:00 PM 29.6°F-1.3°C 24.2°F-4.3°C 80% 3.0 mph SW4.8 kmh SW 11.0 mph17.7 kmh 29.97 in1014.9 mb 0.00 in0.0 mm 0.00 in0.0 mm 0.00 in0.0 mm
12:15 PM 29.9°F-1.2°C 24.2°F-4.3°C 79% Calm Calm 11.0 mph17.7 kmh 29.97 in1014.9 mb 0.00 in0.0 mm 0.00 in0.0 mm 0.00 in0.0 mm
12:30 PM 30.4°F-0.9°C 24.1°F-4.4°C 77% 1.0 mph SW1.6 kmh SW 11.0 mph17.7 kmh 29.97 in1014.9 mb 0.00 in0.0 mm 0.00 in0.0 mm 0.00 in0.0 mm
12:45 PM 30.3°F-0.9°C 23.3°F-4.8°C 75% 4.0 mph W6.4 kmh W 9.0 mph14.5 kmh 29.98 in1015.2 mb 0.00 in0.0 mm 0.00 in0.0 mm 0.00 in0.0 mm
01:00 PM 30.3°F-0.9°C 23.3°F-4.8°C 75% 5.0 mph SW8.0 kmh SW 9.0 mph14.5 kmh 29.98 in1015.2 mb 0.00 in0.0 mm 0.00 in0.0 mm 0.00 in0.0 mm
01:15 PM 30.3°F-0.9°C 23.0°F-5.0°C 74% 2.0 mph WSW3.2 kmh WSW 8.0 mph12.9 kmh 29.97 in1014.9 mb 0.00 in0.0 mm 0.00 in0.0 mm 0.00 in0.0 mm
01:30 PM 30.3°F-0.9°C 22.7°F-5.2°C 73% 3.0 mph WSW4.8 kmh WSW 8.0 mph12.9 kmh 29.97 in1014.9 mb 0.00 in0.0 mm 0.00 in0.0 mm 0.00 in0.0 mm
01:45 PM 30.3°F-0.9°C 22.7°F-5.2°C 73% 5.0 mph W8.0 kmh W 7.0 mph11.3 kmh 29.97 in1014.9 mb 0.00 in0.0 mm 0.00 in0.0 mm 0.00 in0.0 mm
02:00 PM 30.3°F-0.9°C 23.0°F-5.0°C 74% Calm Calm 7.0 mph11.3 kmh 29.97 in1014.9 mb 0.00 in0.0 mm 0.00 in0.0 mm 0.00 in0.0 mm
02:15 PM 30.3°F-0.9°C 23.3°F-4.8°C 75% Calm Calm 7.0 mph11.3 kmh 29.97 in1014.9 mb 0.00 in0.0 mm 0.00 in0.0 mm 0.00 in0.0 mm
02:30 PM 30.5°F-0.8°C 23.9°F-4.5°C 76% Calm Calm 7.0 mph11.3 kmh 29.97 in1014.9 mb 0.00 in0.0 mm 0.00 in0.0 mm 0.00 in0.0 mm
02:45 PM 30.6°F-0.8°C 23.6°F-4.7°C 75% Calm Calm 6.0 mph9.7 kmh 29.97 in1014.9 mb 0.00 in0.0 mm 0.00 in0.0 mm 0.00 in0.0 mm
03:00 PM 30.7°F-0.7°C 24.0°F-4.4°C 76% 3.0 mph SW4.8 kmh SW 7.0 mph11.3 kmh 29.97 in1014.9 mb 0.00 in0.0 mm 0.00 in0.0 mm 0.00 in0.0 mm
03:15 PM 30.6°F-0.8°C 24.0°F-4.4°C 76% 1.0 mph SW1.6 kmh SW 6.0 mph9.7 kmh 29.97 in1014.9 mb 0.00 in0.0 mm 0.00 in0.0 mm 0.00 in0.0 mm
03:30 PM 30.3°F-0.9°C 24.3°F-4.3°C 78% 3.0 mph WNW4.8 kmh WNW 7.0 mph11.3 kmh 29.97 in1014.9 mb 0.00 in0.0 mm 0.00 in0.0 mm 0.00 in0.0 mm
03:45 PM 29.8°F-1.2°C 24.1°F-4.4°C 79% 3.0 mph SSW4.8 kmh SSW 7.0 mph11.3 kmh 29.97 in1014.9 mb 0.00 in0.0 mm 0.00 in0.0 mm 0.00 in0.0 mm
04:00 PM 29.3°F-1.5°C 23.6°F-4.7°C 79% 2.0 mph WNW3.2 kmh WNW 9.0 mph14.5 kmh 29.97 in1014.9 mb 0.00 in0.0 mm 0.00 in0.0 mm 0.00 in0.0 mm
04:15 PM 28.9°F-1.7°C 23.2°F-4.9°C 79% 4.0 mph WSW6.4 kmh WSW 6.0 mph9.7 kmh 29.97 in1014.9 mb 0.00 in0.0 mm 0.00 in0.0 mm 0.00 in0.0 mm
04:30 PM 28.5°F-1.9°C 23.1°F-4.9°C 80% 1.0 mph WSW1.6 kmh WSW 6.0 mph9.7 kmh 29.97 in1014.9 mb 0.00 in0.0 mm 0.00 in0.0 mm 0.00 in0.0 mm
04:45 PM 28.3°F-2.1°C 23.2°F-4.9°C 81% Calm Calm 6.0 mph9.7 kmh 29.97 in1014.9 mb 0.00 in0.0 mm 0.00 in0.0 mm 0.00 in0.0 mm
05:00 PM 28.1°F-2.2°C 23.0°F-5.0°C 81% Calm Calm 6.0 mph9.7 kmh 29.97 in1014.9 mb 0.00 in0.0 mm 0.00 in0.0 mm 0.00 in0.0 mm
05:15 PM 27.9°F-2.3°C 23.1°F-4.9°C 82% 1.0 mph SW1.6 kmh SW 5.0 mph8.0 kmh 29.98 in1015.2 mb 0.00 in0.0 mm 0.00 in0.0 mm 0.00 in0.0 mm
05:30 PM 27.7°F-2.4°C 22.9°F-5.1°C 82% 2.0 mph SW3.2 kmh SW 7.0 mph11.3 kmh 29.99 in1015.6 mb 0.00 in0.0 mm 0.00 in0.0 mm 0.00 in0.0 mm
05:45 PM 27.4°F-2.6°C 23.2°F-4.9°C 84% Calm Calm 6.0 mph9.7 kmh 30.00 in1015.9 mb 0.00 in0.0 mm 0.00 in0.0 mm 0.00 in0.0 mm
06:00 PM 27.2°F-2.7°C 23.3°F-4.8°C 85% 2.0 mph WSW3.2 kmh WSW 7.0 mph11.3 kmh 30.00 in1015.9 mb 0.00 in0.0 mm 0.00 in0.0 mm 0.00 in0.0 mm
06:15 PM 27.0°F-2.8°C 23.4°F-4.8°C 86% Calm Calm 7.0 mph11.3 kmh 30.01 in1016.3 mb 0.00 in0.0 mm 0.00 in0.0 mm 0.00 in0.0 mm
06:30 PM 26.9°F-2.8°C 23.6°F-4.7°C 87% 3.0 mph WSW4.8 kmh WSW 7.0 mph11.3 kmh 30.01 in1016.3 mb 0.00 in0.0 mm 0.00 in0.0 mm 0.00 in0.0 mm
06:45 PM 26.8°F-2.9°C 23.5°F-4.7°C 87% 4.0 mph W6.4 kmh W 7.0 mph11.3 kmh 30.02 in1016.6 mb 0.00 in0.0 mm 0.00 in0.0 mm 0.00 in0.0 mm
07:00 PM 26.8°F-2.9°C 23.5°F-4.7°C 87% 1.0 mph W1.6 kmh W 7.0 mph11.3 kmh 30.03 in1016.9 mb 0.00 in0.0 mm 0.00 in0.0 mm 0.00 in0.0 mm
07:15 PM 26.8°F-2.9°C 23.5°F-4.7°C 87% Calm Calm 5.0 mph8.0 kmh 30.03 in1016.9 mb 0.00 in0.0 mm 0.00 in0.0 mm 0.00 in0.0 mm
07:30 PM 26.8°F-2.9°C 23.5°F-4.7°C 87% 1.0 mph W1.6 kmh W 7.0 mph11.3 kmh 30.03 in1016.9 mb 0.00 in0.0 mm 0.00 in0.0 mm 0.00 in0.0 mm
07:45 PM 26.9°F-2.8°C 23.3°F-4.8°C 86% 2.0 mph NW3.2 kmh NW 8.0 mph12.9 kmh 30.03 in1016.9 mb 0.00 in0.0 mm 0.00 in0.0 mm 0.00 in0.0 mm
08:00 PM 26.8°F-2.9°C 21.8°F-5.7°C 81% 9.0 mph NW14.5 kmh NW 12.0 mph19.3 kmh 30.05 in1017.6 mb 0.00 in0.0 mm 0.00 in0.0 mm 0.00 in0.0 mm
08:15 PM 26.3°F-3.2°C 20.1°F-6.6°C 77% Calm Calm 12.0 mph19.3 kmh 30.05 in1017.6 mb 0.00 in0.0 mm 0.00 in0.0 mm 0.00 in0.0 mm
08:30 PM 26.0°F-3.3°C 19.2°F-7.1°C 75% 5.0 mph NW8.0 kmh NW 12.0 mph19.3 kmh 30.06 in1017.9 mb 0.00 in0.0 mm 0.00 in0.0 mm 0.00 in0.0 mm
08:45 PM 25.3°F-3.7°C 17.6°F-8.0°C 72% 2.0 mph NW3.2 kmh NW 12.0 mph19.3 kmh 30.06 in1017.9 mb 0.00 in0.0 mm 0.00 in0.0 mm 0.00 in0.0 mm
09:00 PM 24.9°F-3.9°C 17.2°F-8.2°C 72% 4.0 mph NW6.4 kmh NW 12.0 mph19.3 kmh 30.07 in1018.3 mb 0.00 in0.0 mm 0.00 in0.0 mm 0.00 in0.0 mm
09:15 PM 24.5°F-4.2°C 17.1°F-8.3°C 73% 2.0 mph WNW3.2 kmh WNW 11.0 mph17.7 kmh 30.08 in1018.6 mb 0.00 in0.0 mm 0.00 in0.0 mm 0.00 in0.0 mm
09:30 PM 24.1°F-4.4°C 16.7°F-8.5°C 73% 5.0 mph W8.0 kmh W 11.0 mph17.7 kmh 30.09 in1019.0 mb 0.00 in0.0 mm 0.00 in0.0 mm 0.00 in0.0 mm
09:45 PM 23.7°F-4.6°C 15.7°F-9.1°C 71% 2.0 mph W3.2 kmh W 11.0 mph17.7 kmh 30.09 in1019.0 mb 0.00 in0.0 mm 0.00 in0.0 mm 0.00 in0.0 mm
10:00 PM 23.5°F-4.7°C 15.2°F-9.3°C 70% Calm Calm 14.0 mph22.5 kmh 30.10 in1019.3 mb 0.00 in0.0 mm 0.00 in0.0 mm 0.00 in0.0 mm
10:15 PM 23.3°F-4.8°C 15.0°F-9.4°C 70% 3.0 mph N4.8 kmh N 8.0 mph12.9 kmh 30.11 in1019.6 mb 0.00 in0.0 mm 0.00 in0.0 mm 0.00 in0.0 mm
10:30 PM 23.2°F-4.9°C 15.2°F-9.3°C 71% 2.0 mph W3.2 kmh W 9.0 mph14.5 kmh 30.11 in1019.6 mb 0.00 in0.0 mm 0.00 in0.0 mm 0.00 in0.0 mm
10:45 PM 23.1°F-4.9°C 15.1°F-9.4°C 71% Calm Calm 9.0 mph14.5 kmh 30.12 in1020.0 mb 0.00 in0.0 mm 0.00 in0.0 mm 0.00 in0.0 mm
11:00 PM 23.0°F-5.0°C 15.3°F-9.3°C 72% 1.0 mph W1.6 kmh W 9.0 mph14.5 kmh 30.12 in1020.0 mb 0.00 in0.0 mm 0.00 in0.0 mm 0.00 in0.0 mm
11:15 PM 22.9°F-5.1°C 14.9°F-9.5°C 71% 3.0 mph NW4.8 kmh NW 8.0 mph12.9 kmh 30.13 in1020.3 mb 0.00 in0.0 mm 0.00 in0.0 mm 0.00 in0.0 mm
11:30 PM 22.9°F-5.1°C 14.9°F-9.5°C 71% 1.0 mph NW1.6 kmh NW 8.0 mph12.9 kmh 30.14 in1020.7 mb 0.00 in0.0 mm 0.00 in0.0 mm 0.00 in0.0 mm
11:45 PM 22.9°F-5.1°C 14.9°F-9.5°C 71% 1.0 mph NW1.6 kmh NW 7.0 mph11.3 kmh 30.14 in1020.7 mb 0.00 in0.0 mm 0.00 in0.0 mm 0.00 in0.0 mm